Date,TemperatureHighF,TemperatureAvgF,TemperatureLowF,DewpointHighF,DewpointAvgF,DewpointLowF,HumidityHigh,HumidityAvg,HumidityLow,PressureMaxIn,PressureMinIn,WindSpeedMaxMPH,WindSpeedAvgMPH,GustSpeedMaxMPH,PrecipitationSumIn
2013-2-1,46,27,12,21,11,4,73,53,37,30.42,30.15,16,5,17,0.00
2013-2-2,54,38,23,31,24,13,75,57,38,30.24,30.15,23,5,24,0.00
2013-2-3,54,44,32,33,25,19,81,48,34,30.27,29.98,19,4,20,0.00
2013-2-4,61,50,36,45,36,24,88,60,41,29.98,29.83,55,6,57,0.14
2013-2-5,66,46,29,54,34,27,100,69,30,30.06,29.92,20,3,21,0.00
2013-2-6,65,51,35,41,35,28,84,56,37,30.12,29.98,19,6,20,0.00
2013-2-7,57,51,42,56,50,39,100,95,74,30.09,29.86,22,6,23,0.02
2013-2-8,53,42,33,40,32,28,95,71,44,30.27,30.09,21,6,22,0.00
2013-2-9,48,41,34,45,34,27,100,79,44,30.21,29.86,58,8,61,0.07
2013-2-10,61,52,40,55,38,24,100,65,33,30.06,29.65,35,13,36,0.24
2013-2-11,55,40,28,29,23,17,83,53,33,30.18,30.03,15,2,16,0.00
2013-2-12,46,38,29,36,28,22,100,70,50,30.15,29.92,14,4,15,0.06
2013-2-13,51,39,33,42,33,28,100,81,48,30.01,29.95,22,7,23,0.08
2013-2-14,57,45,34,34,31,28,86,58,40,30.15,29.95,14,5,14,0.00
2013-2-15,44,35,22,27,17,7,69,48,38,30.30,30.15,20,4,21,0.00
2013-2-16,37,32,22,25,18,10,86,58,44,30.30,30.12,14,5,20,0.00
2013-2-17,63,49,32,33,25,14,53,41,32,30.12,29.83,26,8,27,0.00
2013-2-18,58,50,34,54,38,23,96,65,38,30.12,29.62,39,12,40,0.03
2013-2-19,46,34,22,24,18,12,75,53,38,30.30,30.12,27,4,28,0.00
2013-2-20,34,32,28,32,21,13,92,66,45,30.30,30.03,19,6,20,0.00
2013-2-21,36,33,29,36,32,25,100,96,81,30.06,29.68,29,5,30,0.39
2013-2-22,38,29,21,34,21,17,100,74,51,30.09,29.86,30,9,31,0.00
2013-2-23,45,31,19,27,21,17,99,69,42,30.09,29.95,16,2,17,0.00
2013-2-24,59,44,26,36,29,20,90,58,34,30.01,29.83,19,6,20,0.00
2013-2-25,42,39,36,41,34,27,100,82,58,29.89,29.44,156,10,163,0.21
2013-2-26,36,34,32,36,34,32,100,100,100,29.89,29.39,26,6,27,0.00
2013-2-27,39,34,32,35,30,25,100,87,65,30.06,29.86,32,10,33,0.04
2013-2-28,36,32,27,30,26,23,99,79,65,30.18,30.06,19,7,20,0.00